createdAt,value
2018-09-17T00:01:48.647Z,4.20
2018-09-17T00:04:23.197Z,3.97
2018-09-17T00:06:56.757Z,4.40
2018-09-17T00:09:30.228Z,3.90
2018-09-17T00:12:03.709Z,4.30
2018-09-17T00:14:37.247Z,4.30
2018-09-17T00:17:10.618Z,4.20
2018-09-17T00:19:44.108Z,4.83
2018-09-17T00:22:17.585Z,4.40
2018-09-17T00:24:51.065Z,4.20
2018-09-17T00:27:25.451Z,5.30
2018-09-17T00:29:58.884Z,4.23
2018-09-17T00:32:32.509Z,4.20
2018-09-17T00:35:05.919Z,4.33
2018-09-17T00:37:39.372Z,4.20
2018-09-17T00:40:12.843Z,4.33
2018-09-17T00:42:46.261Z,4.40
2018-09-17T00:45:19.660Z,4.70
2018-09-17T00:47:53.221Z,4.60
2018-09-17T00:50:26.780Z,4.33
2018-09-17T00:53:00.352Z,4.60
2018-09-17T00:55:33.927Z,4.60
2018-09-17T00:58:07.364Z,4.60
2018-09-17T01:00:40.787Z,4.60
2018-09-17T01:03:14.327Z,4.43
2018-09-17T01:05:49.991Z,4.67
2018-09-17T01:08:23.490Z,4.47
2018-09-17T01:10:57.045Z,4.93
2018-09-17T01:13:30.471Z,4.90
2018-09-17T01:16:03.951Z,4.83
2018-09-17T01:18:37.644Z,4.93
2018-09-17T01:21:10.994Z,5.17
2018-09-17T01:23:45.524Z,5.07
2018-09-17T01:26:18.999Z,5.27
2018-09-17T01:28:53.503Z,5.53
2018-09-17T01:31:27.043Z,5.63
2018-09-17T01:34:00.375Z,5.43
2018-09-17T01:36:33.986Z,5.80
2018-09-17T01:39:08.607Z,5.80
2018-09-17T01:41:42.052Z,6.90
2018-09-17T01:44:15.424Z,5.70
2018-09-17T01:46:48.831Z,6.13
2018-09-17T01:49:22.189Z,6.57
2018-09-17T01:51:56.619Z,6.63
2018-09-17T01:54:31.228Z,7.37
2018-09-17T01:57:04.723Z,6.43
2018-09-17T01:59:38.183Z,6.57
2018-09-17T02:02:11.661Z,8.47
2018-09-17T02:04:45.038Z,6.70
2018-09-17T02:07:18.447Z,6.97
2018-09-17T02:09:52.861Z,8.27
2018-09-17T02:12:32.811Z,7.13
2018-09-17T02:15:06.434Z,8.70
2018-09-17T02:17:39.979Z,7.50
2018-09-17T02:20:13.370Z,7.13
2018-09-17T02:22:46.905Z,7.50
2018-09-17T02:25:20.334Z,7.43
2018-09-17T02:27:53.896Z,8.07
2018-09-17T02:30:31.591Z,8.80
2018-09-17T02:33:04.967Z,7.83
2018-09-17T02:35:38.692Z,7.93
2018-09-17T02:38:12.105Z,8.57
2018-09-17T02:40:45.679Z,7.77
2018-09-17T02:43:19.139Z,8.73
2018-09-17T02:45:52.747Z,7.50
2018-09-17T02:48:26.394Z,7.70
2018-09-17T02:51:06.212Z,8.23
2018-09-17T02:53:39.908Z,9.03
2018-09-17T02:56:13.296Z,8.70
2018-09-17T02:58:53.389Z,9.03
2018-09-17T03:01:26.852Z,8.23
2018-09-17T03:04:00.341Z,8.50
2018-09-17T03:06:40.332Z,8.80
2018-09-17T03:09:13.864Z,9.07
2018-09-17T03:11:50.563Z,9.83
2018-09-17T03:14:27.293Z,9.10
2018-09-17T03:17:09.964Z,9.47
2018-09-17T03:19:44.623Z,9.57
2018-09-17T03:22:18.267Z,9.40
2018-09-17T03:24:51.813Z,10.70
2018-09-17T03:27:25.501Z,10.03
2018-09-17T03:29:58.947Z,10.93
2018-09-17T03:32:32.435Z,10.90
2018-09-17T03:35:05.890Z,10.13
2018-09-17T03:37:39.349Z,9.63
2018-09-17T03:40:12.781Z,10.80
2018-09-17T03:42:46.184Z,10.53
2018-09-17T03:45:19.908Z,10.40
2018-09-17T03:47:53.384Z,10.03
2018-09-17T03:50:26.766Z,9.60
2018-09-17T03:53:00.203Z,9.40
2018-09-17T03:55:33.575Z,10.50
2018-09-17T03:58:08.012Z,10.40
2018-09-17T04:00:41.553Z,10.20
2018-09-17T04:03:21.525Z,10.93
2018-09-17T04:05:54.981Z,10.73
2018-09-17T04:08:34.693Z,11.43
2018-09-17T04:11:08.400Z,11.60
2018-09-17T04:13:41.963Z,10.43
2018-09-17T04:16:15.608Z,11.83
2018-09-17T04:18:56.283Z,10.60
2018-09-17T04:21:29.892Z,11.17
2018-09-17T04:24:03.474Z,11.10
2018-09-17T04:26:36.890Z,10.70
2018-09-17T04:29:16.829Z,11.27
2018-09-17T04:31:50.368Z,10.33
2018-09-17T04:34:24.873Z,10.67
2018-09-17T04:36:58.398Z,11.00
2018-09-17T04:39:31.904Z,11.63
2018-09-17T04:42:05.476Z,10.63
2018-09-17T04:44:38.836Z,10.57
2018-09-17T04:47:12.313Z,11.57
2018-09-17T04:49:46.139Z,12.07
2018-09-17T04:52:19.977Z,11.30
2018-09-17T04:55:00.206Z,11.40
2018-09-17T04:57:33.888Z,11.77
2018-09-17T05:00:13.668Z,11.57
2018-09-17T05:02:48.136Z,12.20
2018-09-17T05:05:28.040Z,11.43
2018-09-17T05:08:02.432Z,11.97
2018-09-17T05:10:36.046Z,12.60
2018-09-17T05:13:16.082Z,12.37
2018-09-17T05:15:49.424Z,11.87
2018-09-17T05:18:23.016Z,11.77
2018-09-17T05:20:56.696Z,11.90
2018-09-17T05:23:36.552Z,11.20
2018-09-17T05:26:10.343Z,13.10
2018-09-17T05:28:43.981Z,12.50
2018-09-17T05:31:17.446Z,12.13
2018-09-17T05:33:52.412Z,12.50
2018-09-17T05:36:32.151Z,11.70
2018-09-17T05:39:07.998Z,12.67
2018-09-17T05:41:41.448Z,12.47
2018-09-17T05:44:21.384Z,11.77
2018-09-17T05:46:54.978Z,12.93
2018-09-17T05:49:28.479Z,13.47
2018-09-17T05:52:03.044Z,11.70
2018-09-17T05:54:42.822Z,13.33
2018-09-17T05:57:16.561Z,14.10
2018-09-17T05:59:55.348Z,14.03
2018-09-17T06:02:35.096Z,14.00
2018-09-17T06:05:10.850Z,14.13
2018-09-17T06:07:45.289Z,13.07
2018-09-17T06:10:25.275Z,13.07
2018-09-17T06:12:59.782Z,13.27
2018-09-17T06:15:39.724Z,14.30
2018-09-17T06:21:02.260Z,14.43
2018-09-17T06:23:42.120Z,13.07
2018-09-17T06:26:15.863Z,13.70
2018-09-17T06:28:49.664Z,13.30
2018-09-17T06:31:23.142Z,13.77
2018-09-17T06:34:03.067Z,13.57
2018-09-17T06:36:36.465Z,13.03
2018-09-17T06:39:16.260Z,13.13
2018-09-17T06:41:56.252Z,12.33
2018-09-17T06:44:36.139Z,13.07
2018-09-17T06:47:16.087Z,12.80
2018-09-17T06:49:49.618Z,11.87
2018-09-17T06:52:23.125Z,12.40
2018-09-17T06:54:57.030Z,11.80
2018-09-17T06:57:36.739Z,12.50
2018-09-17T07:00:10.322Z,12.13
2018-09-17T07:02:50.198Z,11.57
2018-09-17T07:05:30.117Z,12.50
2018-09-17T07:08:03.753Z,11.73
2018-09-17T07:10:37.309Z,11.83
2018-09-17T07:13:10.682Z,11.17
2018-09-17T07:15:44.491Z,11.30
2018-09-17T07:18:18.047Z,10.73
2018-09-17T07:20:51.847Z,9.70
2018-09-17T07:23:25.916Z,9.83
2018-09-17T07:26:01.692Z,9.70
2018-09-17T07:28:41.676Z,9.50
2018-09-17T07:31:15.249Z,9.07
2018-09-17T07:33:49.943Z,9.10
2018-09-17T07:36:23.717Z,9.17
2018-09-17T07:38:57.097Z,8.83
2018-09-17T07:41:30.723Z,9.43
2018-09-17T07:44:10.605Z,9.00
2018-09-17T07:46:50.550Z,8.60
2018-09-17T07:49:23.994Z,8.83
2018-09-17T07:51:57.589Z,8.73
2018-09-17T07:54:37.540Z,8.70
2018-09-17T07:57:11.059Z,7.97
2018-09-17T07:59:44.479Z,7.47
2018-09-17T08:02:18.886Z,8.50
2018-09-17T08:04:52.286Z,8.03
2018-09-17T08:07:25.940Z,7.90
2018-09-17T08:09:59.497Z,7.70
2018-09-17T08:12:39.160Z,7.43
2018-09-17T08:15:12.571Z,7.40
2018-09-17T08:17:45.977Z,7.60
2018-09-17T08:20:21.480Z,6.77
2018-09-17T08:22:54.992Z,6.43
2018-09-17T08:25:28.495Z,6.17
2018-09-17T08:28:02.104Z,6.03
2018-09-17T08:30:41.981Z,5.93
2018-09-17T08:33:21.990Z,5.50
2018-09-17T08:35:55.527Z,5.27
2018-09-17T08:38:35.448Z,5.23
2018-09-17T08:41:09.829Z,4.83
2018-09-17T08:43:49.773Z,5.10
2018-09-17T08:46:29.935Z,4.20
2018-09-17T08:49:10.000Z,4.47
2018-09-17T08:51:44.515Z,4.37
2018-09-17T08:54:18.226Z,4.30
2018-09-17T08:56:58.099Z,4.03
2018-09-17T08:59:37.317Z,4.65
2018-09-17T09:02:14.753Z,3.90
2018-09-17T09:04:53.176Z,4.17
2018-09-17T09:07:34.901Z,4.33
2018-09-17T09:10:17.676Z,3.70
2018-09-17T09:12:57.238Z,3.67
2018-09-17T09:15:37.387Z,3.75
2018-09-17T09:18:10.846Z,3.72
2018-09-17T09:20:44.446Z,3.52
2018-09-17T09:23:24.385Z,3.15
2018-09-17T09:25:58.010Z,3.00
2018-09-17T09:28:38.120Z,3.62
2018-09-17T09:31:12.674Z,3.25
2018-09-17T09:33:53.397Z,3.62
2018-09-17T09:36:26.865Z,3.45
2018-09-17T09:39:00.484Z,2.95
2018-09-17T09:41:34.144Z,2.60
2018-09-17T09:44:14.211Z,2.85
2018-09-17T09:46:48.732Z,3.17
2018-09-17T09:49:22.168Z,2.85
2018-09-17T09:52:02.208Z,3.83
2018-09-17T09:54:42.289Z,3.08
2018-09-17T09:57:22.399Z,3.22
2018-09-17T09:59:56.188Z,2.85
2018-09-17T10:02:35.079Z,2.47
2018-09-17T10:05:09.611Z,2.35
2018-09-17T10:07:43.943Z,2.80
2018-09-17T10:10:23.206Z,2.05
2018-09-17T10:13:03.448Z,1.80
2018-09-17T10:15:42.710Z,1.80
2018-09-17T10:18:28.309Z,1.87
2018-09-17T10:21:01.993Z,1.90
2018-09-17T10:23:35.656Z,1.92
2018-09-17T10:26:09.346Z,2.20
2018-09-17T10:28:43.388Z,2.30
2018-09-17T10:31:17.368Z,1.85
2018-09-17T10:33:51.005Z,1.85
2018-09-17T10:36:24.574Z,1.95
2018-09-17T10:38:58.068Z,2.60
2018-09-17T10:41:38.089Z,1.90
2018-09-17T10:44:11.551Z,2.10
2018-09-17T10:46:51.542Z,2.00
2018-09-17T10:49:25.098Z,1.95
2018-09-17T10:51:59.005Z,2.00
2018-09-17T10:54:38.940Z,1.60
2018-09-17T10:57:12.519Z,1.50
2018-09-17T10:59:46.440Z,2.02
2018-09-17T11:02:20.185Z,2.00
2018-09-17T11:04:54.752Z,2.02
2018-09-17T11:07:34.656Z,1.87
2018-09-17T11:10:08.212Z,2.00
2018-09-17T11:12:42.194Z,1.98
2018-09-17T11:15:16.873Z,2.00
2018-09-17T11:17:50.395Z,1.80
2018-09-17T11:20:23.949Z,2.22
2018-09-17T11:23:00.755Z,2.12
2018-09-17T11:25:34.323Z,2.35
2018-09-17T11:28:07.791Z,1.98
2018-09-17T11:30:41.538Z,1.98
2018-09-17T11:33:15.178Z,1.80
2018-09-17T11:35:48.842Z,1.80
2018-09-17T11:38:28.903Z,1.85
2018-09-17T11:41:02.443Z,1.82
2018-09-17T11:43:35.915Z,1.85
2018-09-17T11:46:09.325Z,1.90
2018-09-17T11:48:42.832Z,2.15
2018-09-17T11:51:16.345Z,2.15
2018-09-17T11:53:49.898Z,1.85
2018-09-17T11:56:23.413Z,2.00
2018-09-17T11:58:56.814Z,2.40
2018-09-17T12:01:36.211Z,1.70
2018-09-17T12:04:11.549Z,1.95
2018-09-17T12:06:51.828Z,2.08
2018-09-17T12:09:32.235Z,1.90
2018-09-17T12:12:06.885Z,2.02
2018-09-17T12:14:40.350Z,2.10
2018-09-17T12:17:19.096Z,1.87
2018-09-17T12:19:52.710Z,1.80
2018-09-17T12:22:26.407Z,1.85
2018-09-17T12:25:01.128Z,1.95
2018-09-17T12:27:39.839Z,2.00
2018-09-17T12:30:19.982Z,1.98
2018-09-17T12:32:54.415Z,2.02
2018-09-17T12:35:28.173Z,1.57
2018-09-17T12:38:08.263Z,2.10
2018-09-17T12:41:45.855Z,1.72
2018-09-17T12:44:19.429Z,1.60
2018-09-17T12:46:58.388Z,1.57
2018-09-17T12:49:32.473Z,1.75
2018-09-17T12:52:12.779Z,1.60
2018-09-17T12:54:46.321Z,2.10
2018-09-17T12:57:20.989Z,1.87
2018-09-17T12:59:55.148Z,1.77
2018-09-17T13:02:29.692Z,1.42
2018-09-17T13:05:04.452Z,1.87
2018-09-17T13:07:38.952Z,1.65
2018-09-17T13:10:12.652Z,1.70
2018-09-17T13:12:46.193Z,1.60
2018-09-17T13:15:19.925Z,1.95
2018-09-17T13:18:00.018Z,1.85
2018-09-17T13:20:33.575Z,2.05
2018-09-17T13:23:08.097Z,1.95
2018-09-17T13:25:41.812Z,1.70
2018-09-17T13:28:15.841Z,1.57
2018-09-17T13:30:55.922Z,1.80
2018-09-17T13:33:29.521Z,1.55
2018-09-17T13:36:03.233Z,1.45
2018-09-17T13:38:37.037Z,1.90
2018-09-17T13:41:10.513Z,1.80
2018-09-17T13:43:44.094Z,2.10
2018-09-17T13:46:17.682Z,1.65
2018-09-17T13:48:57.821Z,1.40
2018-09-17T13:51:37.992Z,1.82
2018-09-17T13:54:13.040Z,1.45
2018-09-17T13:56:46.552Z,1.70
2018-09-17T13:59:20.156Z,1.42
2018-09-17T14:01:53.772Z,1.70
2018-09-17T14:04:27.637Z,1.52
2018-09-17T14:07:07.683Z,1.80
2018-09-17T14:09:41.299Z,1.60
2018-09-17T14:12:14.908Z,1.55
2018-09-17T14:14:55.090Z,1.82
2018-09-17T14:17:28.926Z,1.95
2018-09-17T14:20:02.678Z,1.70
2018-09-17T14:22:36.147Z,1.70
2018-09-17T14:25:09.696Z,1.90
2018-09-17T14:27:43.253Z,1.90
2018-09-17T14:30:16.817Z,1.52
2018-09-17T14:32:56.019Z,1.80
2018-09-17T14:35:29.459Z,1.82
2018-09-17T14:38:04.087Z,1.30
2018-09-17T14:40:43.904Z,1.60
2018-09-17T14:43:17.642Z,1.50
2018-09-17T14:45:51.518Z,1.65
2018-09-17T14:48:31.387Z,1.77
2018-09-17T14:51:04.983Z,1.75
2018-09-17T14:53:38.708Z,1.35
2018-09-17T14:56:12.318Z,1.52
2018-09-17T14:58:52.237Z,2.00
2018-09-17T15:01:26.694Z,1.15
2018-09-17T15:04:00.625Z,1.70
2018-09-17T15:06:34.252Z,1.65
2018-09-17T15:09:08.388Z,1.47
2018-09-17T15:11:42.097Z,1.32
2018-09-17T15:14:22.347Z,1.30
2018-09-17T15:16:55.851Z,1.90
2018-09-17T15:19:29.527Z,1.67
2018-09-17T15:22:03.232Z,1.42
2018-09-17T15:24:36.840Z,1.75
2018-09-17T15:27:16.898Z,1.50
2018-09-17T15:29:50.507Z,1.70
2018-09-17T15:32:24.270Z,1.70
2018-09-17T15:34:57.722Z,1.47
2018-09-17T15:37:37.681Z,1.62
2018-09-17T15:40:18.106Z,1.47
2018-09-17T15:42:52.973Z,1.55
2018-09-17T15:45:26.520Z,1.82
2018-09-17T15:48:06.666Z,1.95
2018-09-17T15:50:46.890Z,1.52
2018-09-17T15:53:21.034Z,1.62
2018-09-17T15:55:54.834Z,1.47
2018-09-17T15:58:28.271Z,1.77
2018-09-17T16:01:01.857Z,2.08
2018-09-17T16:03:35.498Z,1.92
2018-09-17T16:06:09.060Z,1.70
2018-09-17T16:08:49.123Z,1.80
2018-09-17T16:11:22.824Z,3.70
2018-09-17T16:13:56.459Z,3.25
2018-09-17T16:16:30.096Z,2.62
2018-09-17T16:19:03.794Z,1.60
2018-09-17T16:21:37.431Z,2.50
2018-09-17T16:24:11.037Z,3.50
2018-09-17T16:26:44.532Z,1.90
2018-09-17T16:29:18.256Z,1.60
2018-09-17T16:31:51.843Z,2.00
2018-09-17T16:34:26.389Z,1.60
2018-09-17T16:37:06.358Z,1.85
2018-09-17T16:39:40.023Z,1.80
2018-09-17T16:42:13.793Z,1.98
2018-09-17T16:44:53.949Z,1.52
2018-09-17T16:47:27.705Z,1.80
2018-09-17T16:50:01.308Z,1.80
2018-09-17T16:52:41.359Z,1.87
2018-09-17T16:55:21.525Z,1.70
2018-09-17T16:57:55.171Z,4.80
2018-09-17T17:00:28.878Z,2.02
2018-09-17T17:03:02.628Z,2.10
2018-09-17T17:05:36.191Z,3.10
2018-09-17T17:08:16.242Z,2.30
2018-09-17T17:10:49.879Z,2.10
2018-09-17T17:13:23.637Z,3.35
2018-09-17T17:16:03.732Z,3.37
2018-09-17T17:18:43.744Z,2.60
2018-09-17T17:21:23.668Z,2.67
2018-09-17T17:23:57.251Z,2.30
2018-09-17T17:26:37.224Z,1.77
2018-09-17T17:29:10.804Z,2.00
2018-09-17T17:31:50.808Z,2.37
2018-09-17T17:34:30.810Z,1.98
2018-09-17T17:37:10.797Z,1.70
2018-09-17T17:39:45.520Z,2.05
2018-09-17T17:42:19.001Z,1.95
2018-09-17T17:44:52.956Z,1.87
2018-09-17T17:47:26.680Z,2.15
2018-09-17T17:50:00.452Z,1.90
2018-09-17T17:52:34.049Z,2.00
2018-09-17T17:55:14.112Z,2.20
2018-09-17T17:57:47.760Z,2.00
2018-09-17T18:00:27.653Z,2.33
2018-09-17T18:03:01.165Z,2.15
2018-09-17T18:05:41.169Z,2.05
2018-09-17T18:08:14.802Z,2.47
2018-09-17T18:10:48.282Z,2.40
2018-09-17T18:13:21.983Z,2.05
2018-09-17T18:16:08.550Z,2.42
2018-09-17T18:18:43.107Z,2.22
2018-09-17T18:21:16.776Z,2.33
2018-09-17T18:23:56.858Z,2.20
2018-09-17T18:26:30.298Z,2.70
2018-09-17T18:29:03.891Z,2.40
2018-09-17T18:31:37.768Z,2.50
2018-09-17T18:34:17.624Z,2.35
2018-09-17T18:36:57.448Z,2.40
2018-09-17T18:39:37.545Z,2.55
2018-09-17T18:42:17.337Z,1.92
2018-09-17T18:44:50.915Z,2.40
2018-09-17T18:47:25.234Z,2.60
2018-09-17T18:49:59.029Z,2.45
2018-09-17T18:52:40.244Z,2.75
2018-09-17T18:55:20.100Z,2.80
2018-09-17T18:58:00.152Z,3.02
2018-09-17T19:00:40.058Z,2.50
2018-09-17T19:03:13.981Z,2.45
2018-09-17T19:05:47.565Z,2.50
2018-09-17T19:08:27.574Z,2.50
2018-09-17T19:11:07.659Z,3.10
2018-09-17T19:13:53.236Z,3.02
2018-09-17T19:16:32.466Z,2.90
2018-09-17T19:19:06.287Z,2.58
2018-09-17T19:21:46.229Z,2.83
2018-09-17T19:24:19.796Z,3.00
2018-09-17T19:26:59.719Z,2.85
2018-09-17T19:29:39.683Z,2.87
2018-09-17T19:32:13.266Z,2.80
2018-09-17T19:34:53.143Z,3.08
2018-09-17T19:37:33.424Z,3.00
2018-09-17T19:40:09.973Z,3.07
2018-09-17T19:42:44.698Z,2.95
2018-09-17T19:45:24.020Z,3.05
2018-09-17T19:48:04.066Z,2.63
2018-09-17T19:50:43.374Z,3.10
2018-09-17T19:53:16.951Z,2.97
2018-09-17T19:55:50.562Z,3.37
2018-09-17T19:58:29.882Z,3.60
2018-09-17T20:01:03.375Z,3.47
2018-09-17T20:03:37.742Z,3.65
2018-09-17T20:06:17.149Z,3.70
2018-09-17T20:08:51.654Z,3.43
2018-09-17T20:11:25.226Z,3.47
2018-09-17T20:13:58.820Z,3.57
2018-09-17T20:16:38.724Z,4.00
2018-09-17T20:19:12.257Z,3.90
2018-09-17T20:21:47.671Z,4.10
2018-09-17T20:24:21.333Z,3.87
2018-09-17T20:26:55.084Z,4.30
2018-09-17T20:29:29.674Z,4.13
2018-09-17T20:32:03.311Z,4.10
2018-09-17T20:34:37.824Z,3.77
2018-09-17T20:37:11.657Z,4.67
2018-09-17T20:39:45.071Z,3.77
2018-09-17T20:42:19.523Z,4.40
2018-09-17T20:44:53.301Z,4.30
2018-09-17T20:47:26.749Z,4.83
2018-09-17T20:50:01.247Z,4.10
2018-09-17T20:52:39.837Z,4.40
2018-09-17T20:55:19.784Z,4.20
2018-09-17T20:57:53.204Z,4.13
2018-09-17T21:00:33.208Z,5.20
2018-09-17T21:04:31.502Z,4.07
2018-09-17T21:07:05.146Z,4.53
2018-09-17T21:09:38.764Z,3.70
2018-09-17T21:12:12.419Z,4.10
2018-09-17T21:14:46.929Z,3.53
2018-09-17T21:17:26.861Z,3.63
2018-09-17T21:20:06.894Z,4.33
2018-09-17T21:22:40.567Z,4.17
2018-09-17T21:25:15.188Z,3.97
2018-09-17T21:27:48.553Z,3.80
2018-09-17T21:30:22.155Z,4.53
2018-09-17T21:32:55.697Z,4.20
2018-09-17T21:35:29.239Z,4.40
2018-09-17T21:38:02.833Z,4.10
2018-09-17T21:40:36.580Z,4.30
2018-09-17T21:43:10.390Z,4.23
2018-09-17T21:45:43.816Z,4.83
2018-09-17T21:48:17.445Z,4.37
2018-09-17T21:50:50.952Z,4.37
2018-09-17T21:53:30.899Z,4.20
2018-09-17T21:56:10.894Z,4.57
2018-09-17T21:58:50.828Z,3.97
2018-09-17T22:01:24.463Z,4.03
2018-09-17T22:04:04.439Z,4.70
2018-09-17T22:06:37.952Z,4.07
2018-09-17T22:09:13.377Z,4.20
2018-09-17T22:11:47.121Z,3.97
2018-09-17T22:14:20.755Z,4.70
2018-09-17T22:17:00.655Z,4.27
2018-09-17T22:19:34.402Z,4.47
2018-09-17T22:22:07.866Z,4.80
2018-09-17T22:24:42.415Z,4.20
2018-09-17T22:27:16.104Z,4.50
2018-09-17T22:29:49.725Z,4.70
2018-09-17T22:32:29.548Z,4.80
2018-09-17T22:35:03.354Z,4.87
2018-09-17T22:37:36.930Z,4.70
2018-09-17T22:40:10.589Z,4.57
2018-09-17T22:42:50.620Z,4.70
2018-09-17T22:45:30.612Z,4.77
2018-09-17T22:48:04.269Z,4.77
2018-09-17T22:50:37.823Z,5.13
2018-09-17T22:53:11.413Z,4.37
2018-09-17T22:55:51.367Z,5.00
2018-09-17T22:58:24.723Z,4.93
2018-09-17T23:00:58.323Z,4.83
2018-09-17T23:03:31.812Z,4.63
2018-09-17T23:06:06.230Z,4.60
2018-09-17T23:08:39.699Z,4.97
2018-09-17T23:11:13.298Z,4.97
2018-09-17T23:13:46.787Z,5.07
2018-09-17T23:16:26.649Z,5.23
2018-09-17T23:19:00.012Z,5.23
2018-09-17T23:21:39.800Z,4.67
2018-09-17T23:24:14.243Z,4.87
2018-09-17T23:33:58.471Z,5.57
2018-09-17T23:36:32.901Z,5.10
2018-09-17T23:39:12.911Z,4.50
2018-09-17T23:41:46.468Z,5.33
2018-09-17T23:44:20.001Z,5.27
2018-09-17T23:46:53.365Z,5.70
2018-09-17T23:49:26.840Z,5.50
2018-09-17T23:52:06.870Z,4.93
2018-09-17T23:54:40.254Z,4.97
2018-09-17T23:57:14.001Z,5.67
2018-09-17T23:59:47.580Z,5.60
